Time;durP1;ratioP1;P1;durP2;ratioP2;P2;SDS_P1;SDS_P2;PMS_P1;PMS_P2;Temp;Humidity;BMP_temperature;BMP_pressure;BME280_temperature;BME280_humidity;BME280_pressure;Samples;Min_cycle;Max_cycle;Signal;HPM_P1;HPM_P2
2023/08/23 00:00:07;;;;;;;5.55;2.72;;;19.80;99.90;;;;;;5030825;28;20435;-61
2023/08/23 00:02:34;;;;;;;7.30;2.45;;;19.80;99.90;;;;;;5031358;28;20488;-60
2023/08/23 00:05:01;;;;;;;6.50;3.42;;;19.70;99.90;;;;;;5030461;28;20053;-59
2023/08/23 00:07:28;;;;;;;6.43;2.17;;;19.50;99.90;;;;;;5031170;28;20152;-59
2023/08/23 00:09:55;;;;;;;4.93;2.47;;;19.50;99.90;;;;;;5031019;28;20045;-59
2023/08/23 00:12:21;;;;;;;7.93;2.35;;;19.40;99.90;;;;;;5031015;28;20095;-60
2023/08/23 00:14:48;;;;;;;7.25;2.47;;;19.40;99.90;;;;;;5031253;28;20447;-60
2023/08/23 00:17:15;;;;;;;4.07;2.42;;;19.50;99.90;;;;;;5030627;28;20045;-59
2023/08/23 00:19:42;;;;;;;7.15;2.67;;;19.40;99.90;;;;;;5013228;28;20045;-59
2023/08/23 00:22:09;;;;;;;6.60;2.53;;;19.50;99.90;;;;;;5013224;28;20289;-60
2023/08/23 00:24:36;;;;;;;6.18;2.35;;;19.40;99.90;;;;;;5030544;28;20084;-59
2023/08/23 00:27:03;;;;;;;4.93;3.15;;;19.50;99.90;;;;;;5030537;28;20049;-60
2023/08/23 00:29:30;;;;;;;8.43;2.58;;;19.50;99.90;;;;;;5030398;28;20312;-60
2023/08/23 00:31:57;;;;;;;11.95;2.80;;;19.40;99.90;;;;;;5030746;28;20100;-60
2023/08/23 00:34:23;;;;;;;10.13;3.15;;;19.30;99.90;;;;;;5030309;28;20053;-60
2023/08/23 00:36:50;;;;;;;7.90;2.38;;;19.30;99.90;;;;;;5029626;28;20103;-60
2023/08/23 00:39:17;;;;;;;6.93;2.17;;;19.30;99.90;;;;;;5030331;28;20053;-59
2023/08/23 00:41:44;;;;;;;9.98;2.47;;;19.30;99.90;;;;;;5030314;28;20096;-61
2023/08/23 00:44:11;;;;;;;8.48;2.45;;;19.30;99.90;;;;;;5030560;28;20420;-60
2023/08/23 00:46:39;;;;;;;6.35;2.95;;;19.30;99.90;;;;;;5029976;28;20041;-61
2023/08/23 00:49:06;;;;;;;5.35;2.33;;;19.30;99.90;;;;;;5030443;28;20131;-61
2023/08/23 00:51:33;;;;;;;9.90;2.65;;;19.40;99.90;;;;;;5029825;28;20053;-61
2023/08/23 00:54:00;;;;;;;5.35;2.30;;;19.20;99.90;;;;;;5013020;28;20151;-59
2023/08/23 00:56:26;;;;;;;7.47;2.22;;;19.20;99.90;;;;;;4995614;28;20045;-60
2023/08/23 00:58:53;;;;;;;7.78;2.25;;;19.00;99.90;;;;;;5027272;28;20479;-60
2023/08/23 01:01:20;;;;;;;5.50;1.80;;;18.90;99.90;;;;;;5030076;28;20187;-61
2023/08/23 01:03:49;;;;;;;4.22;1.92;;;18.90;99.90;;;;;;5030120;28;20084;-60
2023/08/23 01:06:30;;;;;;;6.97;1.73;;;18.90;99.90;;;;;;5029373;28;20440;-60
2023/08/23 01:09:09;;;;;;;6.43;1.63;;;18.80;99.90;;;;;;5013558;28;20452;-60
2023/08/23 01:11:52;;;;;;;3.85;1.58;;;18.70;99.90;;;;;;5029723;28;20053;-60
2023/08/23 01:14:21;;;;;;;6.38;1.55;;;18.80;99.90;;;;;;4997337;28;20053;-60
2023/08/23 01:16:48;;;;;;;6.43;2.13;;;18.80;99.90;;;;;;5011600;28;20049;-60
2023/08/23 01:19:36;;;;;;;9.80;2.33;;;18.80;99.90;;;;;;4995394;28;20054;-60
2023/08/23 01:22:07;;;;;;;9.90;2.78;;;18.90;99.90;;;;;;5029515;28;20033;-60
2023/08/23 01:24:33;;;;;;;5.40;2.00;;;18.90;99.90;;;;;;4995713;28;20294;-61
2023/08/23 01:27:00;;;;;;;5.50;1.83;;;18.90;99.90;;;;;;5011730;28;20420;-60
2023/08/23 01:29:27;;;;;;;4.55;2.33;;;18.80;99.90;;;;;;5029302;28;20505;-61
2023/08/23 01:31:56;;;;;;;6.35;1.60;;;18.80;99.90;;;;;;5029347;28;20041;-62
2023/08/23 01:34:27;;;;;;;4.30;1.77;;;18.70;99.90;;;;;;5002019;28;20050;-60
2023/08/23 01:36:54;;;;;;;5.53;1.90;;;18.70;99.90;;;;;;5029471;28;20068;-59
2023/08/23 01:39:25;;;;;;;7.43;2.50;;;18.70;99.90;;;;;;5029379;28;20091;-60
2023/08/23 01:41:52;;;;;;;4.50;1.95;;;18.70;99.90;;;;;;5029125;28;20041;-60
2023/08/23 01:44:19;;;;;;;7.57;1.60;;;18.60;99.90;;;;;;5011860;28;20123;-58
2023/08/23 01:46:46;;;;;;;7.95;2.13;;;18.50;99.90;;;;;;5029398;28;20099;-59
2023/08/23 01:49:12;;;;;;;7.28;1.80;;;18.60;99.90;;;;;;5027833;28;20050;-60
2023/08/23 01:51:39;;;;;;;5.35;2.08;;;18.50;99.90;;;;;;5029316;28;20049;-60
2023/08/23 01:54:06;;;;;;;7.80;1.98;;;18.60;99.90;;;;;;5028692;28;20542;-60
2023/08/23 01:56:32;;;;;;;10.23;2.17;;;18.50;99.90;;;;;;5029186;28;20045;-59
2023/08/23 01:58:59;;;;;;;5.47;1.50;;;18.50;99.90;;;;;;5028660;28;20153;-60
2023/08/23 02:01:26;;;;;;;4.60;1.58;;;18.50;99.90;;;;;;5029250;28;20049;-59
2023/08/23 02:03:53;;;;;;;4.75;1.63;;;18.40;99.90;;;;;;5028443;28;20384;-60
2023/08/23 02:06:20;;;;;;;6.20;1.60;;;18.30;99.90;;;;;;5028861;28;20053;-60
2023/08/23 02:08:47;;;;;;;7.78;2.38;;;18.30;99.90;;;;;;5026120;28;20045;-60
2023/08/23 02:11:13;;;;;;;8.13;1.90;;;18.30;99.90;;;;;;5028478;28;20056;-60
2023/08/23 02:13:40;;;;;;;6.00;1.90;;;18.30;99.90;;;;;;5028495;28;20516;-60
2023/08/23 02:16:07;;;;;;;7.47;2.20;;;18.20;99.90;;;;;;5010833;28;20041;-60
2023/08/23 02:18:34;;;;;;;15.43;2.42;;;18.20;99.90;;;;;;5026596;28;20051;-60
2023/08/23 02:21:01;;;;;;;4.78;1.90;;;18.10;99.90;;;;;;5028491;28;20041;-60
2023/08/23 02:23:27;;;;;;;7.07;2.17;;;18.10;99.90;;;;;;5028280;28;20041;-60
2023/08/23 02:25:54;;;;;;;5.30;1.75;;;18.10;99.90;;;;;;5028705;28;20078;-60
2023/08/23 02:28:21;;;;;;;2.55;1.38;;;18.00;99.90;;;;;;5028510;28;20045;-60
2023/08/23 02:30:48;;;;;;;5.65;2.03;;;18.10;99.90;;;;;;5028416;28;20107;-60
2023/08/23 02:33:14;;;;;;;4.45;1.65;;;18.10;99.90;;;;;;5028147;28;20049;-60
2023/08/23 02:35:46;;;;;;;4.80;1.73;;;18.10;99.90;;;;;;5027940;28;20087;-60
2023/08/23 02:38:14;;;;;;;8.88;2.70;;;18.10;99.90;;;;;;5028606;28;20053;-60
2023/08/23 02:40:42;;;;;;;7.43;2.38;;;18.10;99.90;;;;;;5028367;28;20404;-60
2023/08/23 02:43:09;;;;;;;5.82;2.42;;;18.00;99.90;;;;;;5028721;28;20057;-60
2023/08/23 02:45:39;;;;;;;6.47;2.92;;;18.00;99.90;;;;;;5028028;28;20096;-60
2023/08/23 02:48:08;;;;;;;9.80;2.83;;;18.00;99.90;;;;;;5028248;28;20053;-60
2023/08/23 02:50:35;;;;;;;8.32;3.70;;;17.90;99.90;;;;;;5010238;28;20045;-60
2023/08/23 02:53:02;;;;;;;7.88;3.65;;;17.80;99.90;;;;;;5010914;28;20459;-60
2023/08/23 02:55:29;;;;;;;8.27;3.55;;;17.70;99.90;;;;;;5025370;28;20459;-60
2023/08/23 02:57:56;;;;;;;5.40;2.33;;;17.60;99.90;;;;;;5026411;28;20060;-60
2023/08/23 03:00:23;;;;;;;7.13;3.47;;;17.50;99.90;;;;;;5025323;28;20496;-60
2023/08/23 03:02:49;;;;;;;10.80;3.08;;;17.50;99.90;;;;;;5027854;28;20127;-60
2023/08/23 03:05:16;;;;;;;9.90;3.03;;;17.50;99.90;;;;;;5024156;28;20057;-60
2023/08/23 03:07:43;;;;;;;11.13;3.05;;;17.40;99.90;;;;;;5010376;28;20050;-60
2023/08/23 03:10:10;;;;;;;9.23;3.00;;;17.30;99.90;;;;;;5027871;28;20050;-60
2023/08/23 03:12:37;;;;;;;7.75;3.05;;;17.30;99.90;;;;;;5027947;28;20301;-60
2023/08/23 03:15:04;;;;;;;7.32;3.05;;;17.40;99.90;;;;;;5027868;28;20135;-60
2023/08/23 03:17:31;;;;;;;13.07;3.75;;;17.50;99.90;;;;;;5010409;28;20095;-60
2023/08/23 03:19:58;;;;;;;8.65;2.55;;;17.50;99.90;;;;;;5027508;28;20053;-59
2023/08/23 03:22:25;;;;;;;8.90;3.00;;;17.50;99.90;;;;;;5028084;28;20344;-59
2023/08/23 03:24:51;;;;;;;6.30;2.08;;;17.50;99.90;;;;;;5010692;28;20053;-59
2023/08/23 03:27:18;;;;;;;6.53;3.45;;;17.50;99.90;;;;;;5027767;28;20057;-59
2023/08/23 03:29:48;;;;;;;12.52;3.90;;;17.50;99.90;;;;;;5028053;28;20045;-60
2023/08/23 03:32:15;;;;;;;10.93;3.05;;;17.50;99.90;;;;;;5015808;28;20057;-60
2023/08/23 03:34:42;;;;;;;8.95;3.08;;;17.50;99.90;;;;;;5027705;28;20049;-60
2023/08/23 03:37:09;;;;;;;11.10;2.47;;;17.50;99.90;;;;;;5027650;28;20064;-59
2023/08/23 03:39:37;;;;;;;7.32;2.88;;;17.50;99.90;;;;;;5027955;28;20053;-60
2023/08/23 03:42:04;;;;;;;6.10;2.78;;;17.50;99.90;;;;;;5010028;28;20049;-59
2023/08/23 03:44:31;;;;;;;4.60;2.45;;;17.50;99.90;;;;;;5027535;28;20045;-60
2023/08/23 03:46:58;;;;;;;12.10;3.75;;;17.50;99.90;;;;;;5010160;28;20364;-61
2023/08/23 03:49:25;;;;;;;8.23;2.97;;;17.60;99.90;;;;;;5024595;28;20069;-60
2023/08/23 03:51:55;;;;;;;9.57;3.65;;;17.60;99.90;;;;;;5027353;28;20041;-60
2023/08/23 03:54:21;;;;;;;11.10;3.15;;;17.60;99.90;;;;;;5027625;28;20054;-60
2023/08/23 03:56:48;;;;;;;6.45;2.55;;;17.60;99.90;;;;;;5024735;28;20564;-60
2023/08/23 03:59:15;;;;;;;6.20;2.38;;;17.60;99.90;;;;;;5027281;28;20459;-60
2023/08/23 04:01:43;;;;;;;11.10;3.58;;;17.60;99.90;;;;;;5009931;28;20050;-61
2023/08/23 04:04:10;;;;;;;5.80;2.75;;;17.50;99.90;;;;;;5025160;28;20053;-60
2023/08/23 04:06:38;;;;;;;6.38;2.88;;;17.50;99.90;;;;;;5026894;28;20056;-61
2023/08/23 04:09:05;;;;;;;8.82;3.70;;;17.50;99.90;;;;;;5027329;28;20071;-61
2023/08/23 04:11:31;;;;;;;13.13;3.60;;;17.50;99.90;;;;;;5028285;28;20053;-60
2023/08/23 04:13:58;;;;;;;6.18;2.67;;;17.60;99.90;;;;;;5030812;28;20077;-61
2023/08/23 04:16:25;;;;;;;7.22;2.85;;;17.60;99.90;;;;;;5031316;28;20087;-60
2023/08/23 04:18:53;;;;;;;8.27;3.08;;;17.70;99.90;;;;;;5030933;28;20324;-60
2023/08/23 04:21:20;;;;;;;6.78;2.70;;;17.70;99.90;;;;;;5013810;28;20049;-59
2023/08/23 04:23:46;;;;;;;8.30;2.97;;;17.70;99.90;;;;;;5030464;28;20103;-60
2023/08/23 04:26:13;;;;;;;6.10;2.42;;;17.70;99.90;;;;;;5028130;28;20046;-60
2023/08/23 04:28:40;;;;;;;9.18;2.53;;;17.70;99.90;;;;;;5029540;28;20129;-60
2023/08/23 04:31:07;;;;;;;10.75;2.92;;;17.70;99.90;;;;;;5028544;28;20488;-60
2023/08/23 04:33:37;;;;;;;8.05;2.92;;;17.60;99.90;;;;;;5030887;28;20041;-60
2023/08/23 04:36:04;;;;;;;9.40;2.90;;;17.60;99.90;;;;;;5030296;28;20045;-60
2023/08/23 04:38:31;;;;;;;13.43;2.95;;;17.60;99.90;;;;;;5030647;28;20046;-61
2023/08/23 04:41:04;;;;;;;7.40;3.17;;;17.70;99.90;;;;;;5030607;28;20053;-60
2023/08/23 04:43:31;;;;;;;4.95;2.65;;;17.70;99.90;;;;;;5013542;28;20041;-61
2023/08/23 04:45:58;;;;;;;11.32;2.97;;;17.70;99.90;;;;;;5030871;28;20061;-61
2023/08/23 04:48:26;;;;;;;9.75;2.95;;;17.70;99.90;;;;;;5030235;28;20057;-61
2023/08/23 04:50:54;;;;;;;10.40;3.60;;;17.70;99.90;;;;;;5030557;28;20076;-58
2023/08/23 04:53:21;;;;;;;7.80;2.67;;;17.70;99.90;;;;;;5030310;28;20474;-60
2023/08/23 04:55:48;;;;;;;5.82;2.22;;;17.80;99.90;;;;;;5030104;28;20168;-60
2023/08/23 04:58:15;;;;;;;6.93;3.05;;;17.70;99.90;;;;;;5030325;28;20396;-61
2023/08/23 05:00:45;;;;;;;7.18;2.80;;;17.80;99.90;;;;;;5030468;28;20041;-61
2023/08/23 05:03:12;;;;;;;7.22;3.13;;;17.70;99.90;;;;;;5030274;28;20067;-60
2023/08/23 05:05:40;;;;;;;6.97;2.80;;;17.70;99.90;;;;;;5029444;28;20099;-60
2023/08/23 05:08:07;;;;;;;10.65;3.20;;;17.80;99.90;;;;;;5030276;28;20046;-60
2023/08/23 05:10:34;;;;;;;7.28;2.90;;;17.70;99.90;;;;;;5029834;28;20073;-61
2023/08/23 05:13:01;;;;;;;7.93;3.78;;;17.60;99.90;;;;;;5030093;28;20212;-60
2023/08/23 05:15:28;;;;;;;9.57;2.75;;;17.60;99.90;;;;;;5029384;28;20041;-61
2023/08/23 05:17:55;;;;;;;9.55;3.10;;;17.60;99.90;;;;;;5029855;28;20481;-61
2023/08/23 05:20:22;;;;;;;8.85;3.05;;;17.60;99.90;;;;;;5028994;28;20512;-60
2023/08/23 05:22:49;;;;;;;10.77;3.42;;;17.60;99.90;;;;;;5029921;28;20041;-60
2023/08/23 05:25:16;;;;;;;10.32;3.05;;;17.60;99.90;;;;;;5014630;28;20069;-60
2023/08/23 05:27:43;;;;;;;6.93;3.08;;;17.60;99.90;;;;;;5029838;28;20064;-61
2023/08/23 05:30:10;;;;;;;9.95;3.40;;;17.50;99.90;;;;;;5029346;28;20103;-62
2023/08/23 05:32:37;;;;;;;9.73;2.97;;;17.40;99.90;;;;;;5029698;28;20045;-61
2023/08/23 05:35:04;;;;;;;7.85;3.42;;;17.40;99.90;;;;;;5028393;28;20049;-62
2023/08/23 05:37:31;;;;;;;6.95;3.05;;;17.30;99.90;;;;;;5027696;28;20072;-61
2023/08/23 05:39:57;;;;;;;10.45;3.75;;;17.40;99.90;;;;;;5027057;28;20099;-62
2023/08/23 05:42:24;;;;;;;7.85;3.40;;;17.40;99.90;;;;;;5028915;28;20496;-61
2023/08/23 05:44:51;;;;;;;10.68;3.47;;;17.40;99.90;;;;;;5028937;28;20559;-61
2023/08/23 05:47:18;;;;;;;11.95;3.20;;;17.50;99.90;;;;;;5011605;28;20050;-61
2023/08/23 05:49:45;;;;;;;7.38;2.78;;;17.50;99.90;;;;;;5028843;28;20053;-59
2023/08/23 05:52:12;;;;;;;12.43;3.70;;;17.50;99.90;;;;;;5028969;28;20416;-60
2023/08/23 05:54:38;;;;;;;9.75;2.72;;;17.60;99.90;;;;;;5029361;28;20370;-59
2023/08/23 05:57:05;;;;;;;14.00;3.78;;;17.60;99.90;;;;;;5028811;28;20399;-60
2023/08/23 05:59:33;;;;;;;6.90;3.22;;;17.60;99.90;;;;;;5018075;28;20105;-58
2023/08/23 06:02:00;;;;;;;11.57;3.60;;;17.70;99.90;;;;;;5028343;28;20057;-60
2023/08/23 06:04:30;;;;;;;12.02;3.90;;;17.70;99.90;;;;;;5028441;28;20050;-60
2023/08/23 06:06:57;;;;;;;9.85;3.90;;;17.80;99.90;;;;;;5027654;28;20076;-60
2023/08/23 06:09:24;;;;;;;9.15;4.13;;;17.80;99.90;;;;;;5028618;28;20045;-60
2023/08/23 06:11:51;;;;;;;7.72;3.10;;;17.90;99.90;;;;;;5028576;28;20088;-59
2023/08/23 06:14:19;;;;;;;6.18;2.95;;;18.00;99.90;;;;;;5028877;28;20103;-59
2023/08/23 06:16:46;;;;;;;8.50;3.53;;;18.00;99.90;;;;;;5027064;28;20042;-60
2023/08/23 06:19:13;;;;;;;10.85;3.92;;;18.10;99.90;;;;;;5028478;28;20064;-60
2023/08/23 06:21:42;;;;;;;5.15;2.80;;;18.10;99.90;;;;;;5028527;28;20037;-60
2023/08/23 06:24:10;;;;;;;11.43;3.58;;;18.20;99.90;;;;;;5028509;28;20392;-60
2023/08/23 06:26:36;;;;;;;6.20;2.78;;;18.20;99.90;;;;;;5028158;28;20480;-60
2023/08/23 06:29:03;;;;;;;9.15;3.22;;;18.20;99.90;;;;;;5028157;28;20053;-60
2023/08/23 06:31:30;;;;;;;48.70;9.27;;;18.20;99.90;;;;;;5028078;28;20704;-60
2023/08/23 06:33:57;;;;;;;15.60;3.88;;;18.20;99.90;;;;;;5027697;28;20407;-60
2023/08/23 06:36:24;;;;;;;13.65;3.72;;;18.30;99.90;;;;;;5025474;28;20440;-60
2023/08/23 06:38:50;;;;;;;8.45;2.83;;;18.30;99.90;;;;;;5028080;28;20481;-61
2023/08/23 06:41:17;;;;;;;6.72;2.95;;;18.30;99.90;;;;;;5028186;28;20053;-58
2023/08/23 06:43:46;;;;;;;8.82;3.10;;;18.30;99.90;;;;;;5027825;28;20045;-61
2023/08/23 06:46:13;;;;;;;7.20;2.95;;;18.30;99.90;;;;;;5025609;28;20049;-61
2023/08/23 06:48:40;;;;;;;11.88;4.10;;;18.30;99.90;;;;;;5027527;28;20041;-61
2023/08/23 06:51:07;;;;;;;9.32;3.72;;;18.20;99.90;;;;;;5028011;28;20038;-61
2023/08/23 06:53:34;;;;;;;8.95;2.97;;;18.30;99.90;;;;;;5027509;28;20141;-61
2023/08/23 06:56:03;;;;;;;10.23;3.00;;;18.40;99.90;;;;;;5028134;28;20416;-61
2023/08/23 06:58:30;;;;;;;10.98;4.10;;;18.40;99.90;;;;;;5027982;28;20595;-62
2023/08/23 07:00:57;;;;;;;7.72;2.65;;;18.50;99.90;;;;;;5024807;28;20072;-60
2023/08/23 07:03:24;;;;;;;9.65;3.70;;;18.60;99.90;;;;;;5027735;28;20134;-61
2023/08/23 07:05:51;;;;;;;15.05;3.58;;;18.70;99.90;;;;;;5027512;28;20409;-61
2023/08/23 07:08:18;;;;;;;7.88;3.13;;;18.70;99.90;;;;;;5027846;28;20320;-60
2023/08/23 07:10:45;;;;;;;11.98;3.22;;;18.60;99.90;;;;;;5025025;28;20500;-63
2023/08/23 07:13:12;;;;;;;8.88;3.47;;;18.60;99.90;;;;;;5027799;28;20107;-61
2023/08/23 07:15:40;;;;;;;12.00;3.30;;;18.60;99.90;;;;;;5027979;28;20053;-61
2023/08/23 07:18:08;;;;;;;12.77;3.92;;;18.70;99.90;;;;;;5027530;28;20049;-61
2023/08/23 07:20:35;;;;;;;12.07;3.22;;;18.70;99.90;;;;;;5019020;28;20510;-62
2023/08/23 07:23:02;;;;;;;11.60;3.90;;;18.80;99.90;;;;;;5027166;28;20493;-61
2023/08/23 07:25:29;;;;;;;9.73;2.97;;;18.70;99.90;;;;;;5027759;28;20103;-61
2023/08/23 07:27:56;;;;;;;10.70;3.30;;;18.70;99.90;;;;;;5027797;28;20104;-61
2023/08/23 07:30:23;;;;;;;11.55;3.25;;;18.70;99.90;;;;;;5027988;28;20412;-61
2023/08/23 07:32:50;;;;;;;6.10;3.17;;;18.70;99.90;;;;;;5027674;28;20119;-61
2023/08/23 07:35:17;;;;;;;11.60;2.95;;;18.90;99.90;;;;;;5026748;28;20056;-61
2023/08/23 07:37:44;;;;;;;15.15;4.32;;;19.00;99.90;;;;;;5025631;28;20050;-61
2023/08/23 07:40:14;;;;;;;6.82;3.33;;;19.00;99.90;;;;;;5027026;28;20519;-61
2023/08/23 07:42:41;;;;;;;8.65;2.75;;;18.90;99.90;;;;;;5027583;28;20050;-61
2023/08/23 07:45:09;;;;;;;7.45;2.65;;;19.00;99.90;;;;;;5027164;28;20046;-61
2023/08/23 07:47:36;;;;;;;13.25;3.40;;;19.10;99.90;;;;;;5013049;28;20044;-60
2023/08/23 07:50:03;;;;;;;7.00;2.95;;;19.10;99.90;;;;;;5031008;28;20192;-59
2023/08/23 07:52:30;;;;;;;14.05;3.15;;;19.10;99.90;;;;;;5031261;28;20041;-61
2023/08/23 07:54:57;;;;;;;12.40;2.60;;;19.10;99.90;;;;;;5029849;28;20484;-60
2023/08/23 07:57:24;;;;;;;14.02;3.40;;;19.10;99.90;;;;;;5030036;28;20045;-61
2023/08/23 07:59:52;;;;;;;18.60;4.03;;;19.30;99.90;;;;;;5019773;28;20061;-61
2023/08/23 08:02:19;;;;;;;8.55;2.80;;;19.30;99.90;;;;;;5030992;28;20048;-61
2023/08/23 08:04:46;;;;;;;11.52;2.58;;;19.30;99.90;;;;;;5012866;28;20123;-62
2023/08/23 08:07:13;;;;;;;9.07;2.40;;;19.30;99.90;;;;;;5030926;28;20076;-61
2023/08/23 08:10:00;;;;;;;10.45;2.13;;;19.30;99.90;;;;;;5028252;28;20045;-61
2023/08/23 08:12:27;;;;;;;8.98;1.92;;;19.40;99.90;;;;;;5030643;28;20050;-61
2023/08/23 08:14:54;;;;;;;10.00;3.92;;;19.50;99.90;;;;;;5030990;28;20099;-61
2023/08/23 08:17:20;;;;;;;7.35;2.20;;;19.60;99.90;;;;;;5030639;28;20103;-61
2023/08/23 08:19:47;;;;;;;5.20;2.20;;;19.60;99.90;;;;;;5030417;28;20049;-61
2023/08/23 08:22:14;;;;;;;9.77;2.17;;;19.60;99.90;;;;;;5030541;28;20064;-61
2023/08/23 08:24:41;;;;;;;4.93;1.88;;;19.70;99.90;;;;;;5031087;28;20041;-61
2023/08/23 08:27:08;;;;;;;8.77;1.67;;;19.70;99.90;;;;;;5017988;28;20053;-61
2023/08/23 08:29:35;;;;;;;6.70;2.30;;;19.70;99.90;;;;;;5030950;28;20056;-61
2023/08/23 08:32:01;;;;;;;9.18;2.30;;;19.80;99.90;;;;;;5030212;28;20076;-61
2023/08/23 08:34:28;;;;;;;8.73;3.10;;;19.90;99.90;;;;;;5030364;28;20049;-62
2023/08/23 08:36:55;;;;;;;9.02;1.63;;;19.90;99.90;;;;;;5030311;28;20045;-61
2023/08/23 08:39:22;;;;;;;10.05;1.38;;;20.00;99.90;;;;;;5030325;28;20107;-61
2023/08/23 08:41:49;;;;;;;7.32;2.30;;;20.00;99.90;;;;;;5030279;28;20042;-61
2023/08/23 08:44:15;;;;;;;4.85;1.83;;;20.00;99.90;;;;;;5012641;28;20038;-62
2023/08/23 08:46:42;;;;;;;4.82;1.70;;;20.00;99.90;;;;;;5012095;28;20045;-62
2023/08/23 08:49:09;;;;;;;8.13;2.20;;;20.20;99.90;;;;;;5029991;28;20062;-61
2023/08/23 08:51:36;;;;;;;4.00;1.63;;;20.30;99.90;;;;;;5014852;28;20148;-62
2023/08/23 08:54:05;;;;;;;4.10;1.63;;;20.40;99.90;;;;;;5016479;28;20104;-63
2023/08/23 08:56:32;;;;;;;8.43;2.78;;;20.40;99.90;;;;;;4996249;28;20107;-61
2023/08/23 08:58:58;;;;;;;5.45;1.30;;;20.50;99.90;;;;;;5017115;28;20061;-61
2023/08/23 09:01:26;;;;;;;6.47;2.30;;;20.50;99.90;;;;;;4995376;28;20100;-62
2023/08/23 09:03:53;;;;;;;7.38;2.38;;;20.70;99.90;;;;;;5012307;28;20308;-61
2023/08/23 09:06:20;;;;;;;5.80;3.08;;;20.70;99.90;;;;;;5012213;28;20065;-62
2023/08/23 09:08:47;;;;;;;5.78;1.83;;;20.80;99.90;;;;;;5030211;28;20037;-62
2023/08/23 09:11:14;;;;;;;9.05;1.83;;;20.90;99.90;;;;;;5012110;28;20516;-62
2023/08/23 09:13:41;;;;;;;10.07;1.70;;;20.90;99.90;;;;;;5029416;28;20493;-62
2023/08/23 09:16:08;;;;;;;7.05;1.85;;;21.00;99.90;;;;;;5010554;28;20081;-63
2023/08/23 09:18:35;;;;;;;7.03;2.42;;;21.00;99.90;;;;;;5029169;28;20119;-62
2023/08/23 09:21:02;;;;;;;8.68;1.80;;;21.10;99.90;;;;;;5029146;28;20041;-62
2023/08/23 09:23:35;;;;;;;9.55;2.22;;;21.10;99.90;;;;;;5029141;28;20095;-62
2023/08/23 09:26:01;;;;;;;5.90;1.60;;;21.20;99.90;;;;;;5026757;28;20041;-62
2023/08/23 09:28:29;;;;;;;3.90;1.50;;;21.20;99.90;;;;;;5029509;28;20095;-62
2023/08/23 09:30:56;;;;;;;6.45;1.33;;;21.30;99.90;;;;;;5007344;28;20129;-63
2023/08/23 09:33:23;;;;;;;7.30;1.63;;;21.40;99.90;;;;;;5029210;28;20045;-63
2023/08/23 09:35:51;;;;;;;5.88;1.50;;;21.50;99.90;;;;;;5029035;28;20057;-62
2023/08/23 09:38:19;;;;;;;8.43;2.05;;;21.60;99.90;;;;;;5029285;28;20103;-61
2023/08/23 09:40:47;;;;;;;6.68;1.40;;;21.60;99.90;;;;;;5029153;28;20053;-62
2023/08/23 09:43:15;;;;;;;6.18;1.98;;;21.90;99.90;;;;;;5025781;28;20057;-63
2023/08/23 09:45:42;;;;;;;6.28;1.73;;;22.20;99.90;;;;;;5029162;28;20124;-63
2023/08/23 09:48:09;;;;;;;6.90;2.35;;;22.60;99.90;;;;;;5011712;28;20045;-63
2023/08/23 09:50:36;;;;;;;6.13;1.50;;;22.70;99.90;;;;;;5028998;28;20115;-63
2023/08/23 09:53:04;;;;;;;5.70;2.28;;;23.00;99.90;;;;;;5028646;28;20326;-65
2023/08/23 09:55:35;;;;;;;8.27;1.80;;;23.10;99.90;;;;;;5028891;28;20472;-63
2023/08/23 09:58:02;;;;;;;4.85;1.95;;;23.00;99.90;;;;;;5029068;28;20492;-63
2023/08/23 10:00:29;;;;;;;3.95;1.85;;;23.20;99.90;;;;;;5028839;28;20385;-63
2023/08/23 10:02:57;;;;;;;7.57;1.83;;;23.30;99.90;;;;;;5029134;28;20050;-62
2023/08/23 10:05:25;;;;;;;9.85;2.00;;;23.50;99.90;;;;;;5027681;28;20046;-64
2023/08/23 10:07:54;;;;;;;7.38;1.95;;;23.80;99.90;;;;;;5028886;28;20049;-62
2023/08/23 10:10:21;;;;;;;9.13;2.40;;;24.20;99.90;;;;;;5027726;28;20057;-62
2023/08/23 10:12:49;;;;;;;5.15;2.20;;;24.30;99.90;;;;;;5028598;28;20255;-63
2023/08/23 10:15:18;;;;;;;4.65;1.60;;;24.10;99.90;;;;;;4994426;28;20049;-63
2023/08/23 10:17:46;;;;;;;8.80;1.90;;;24.50;99.90;;;;;;5011143;28;20041;-63
2023/08/23 10:20:14;;;;;;;6.13;1.33;;;24.80;99.90;;;;;;5010898;28;20151;-63
2023/08/23 10:22:41;;;;;;;6.43;1.73;;;25.00;99.90;;;;;;5010846;28;20515;-63
2023/08/23 10:25:17;;;;;;;5.70;1.23;;;25.00;99.90;;;;;;5010646;28;20049;-64
2023/08/23 10:27:45;;;;;;;4.10;1.50;;;24.50;98.50;;;;;;5028207;28;20129;-63
2023/08/23 10:30:31;;;;;;;2.38;1.10;;;24.20;99.90;;;;;;5028305;28;20045;-63
2023/08/23 10:33:08;;;;;;;8.98;1.65;;;24.10;98.30;;;;;;5028166;28;20137;-63
2023/08/23 10:35:36;;;;;;;7.75;2.03;;;24.00;99.00;;;;;;5028216;28;20113;-62
2023/08/23 10:38:04;;;;;;;7.97;1.88;;;23.80;99.70;;;;;;5010944;28;20050;-63
2023/08/23 10:40:31;;;;;;;7.40;1.35;;;23.70;99.60;;;;;;5028009;28;20099;-62
2023/08/23 10:43:01;;;;;;;5.60;1.55;;;23.60;99.30;;;;;;5028061;28;20042;-62
2023/08/23 10:45:28;;;;;;;5.05;1.35;;;23.60;99.80;;;;;;5010456;28;20425;-62
2023/08/23 10:47:55;;;;;;;4.40;1.75;;;23.70;99.90;;;;;;5028260;28;20049;-62
2023/08/23 10:50:22;;;;;;;3.60;1.48;;;23.70;99.90;;;;;;5027834;28;20357;-62
2023/08/23 10:52:49;;;;;;;7.43;1.65;;;23.70;99.90;;;;;;5010292;28;20100;-61
2023/08/23 10:55:17;;;;;;;4.88;1.58;;;23.70;99.80;;;;;;5026223;28;20136;-62
2023/08/23 10:57:44;;;;;;;7.38;1.20;;;23.70;99.10;;;;;;5026991;28;20116;-61
2023/08/23 11:00:12;;;;;;;9.90;2.85;;;23.50;99.10;;;;;;5027965;28;20056;-62
2023/08/23 11:02:39;;;;;;;3.30;1.30;;;23.40;99.10;;;;;;5027791;28;20041;-62
2023/08/23 11:05:06;;;;;;;6.05;1.90;;;23.50;98.60;;;;;;5026920;28;20552;-62
2023/08/23 11:07:34;;;;;;;3.70;1.40;;;23.50;97.90;;;;;;5024744;28;20140;-63
2023/08/23 11:10:01;;;;;;;6.68;1.98;;;23.60;95.90;;;;;;5010555;28;20049;-62
2023/08/23 11:12:28;;;;;;;2.88;1.38;;;23.40;96.20;;;;;;5025129;28;20056;-62
2023/08/23 11:14:57;;;;;;;3.47;1.33;;;23.40;96.80;;;;;;5028220;28;20124;-61
2023/08/23 11:17:25;;;;;;;9.85;1.30;;;23.60;96.70;;;;;;5023516;28;20041;-63
2023/08/23 11:19:51;;;;;;;9.50;2.42;;;23.60;96.90;;;;;;5027740;28;20045;-62
2023/08/23 11:22:18;;;;;;;4.10;1.20;;;23.50;96.40;;;;;;5031831;28;20464;-62
2023/08/23 11:24:46;;;;;;;4.22;1.52;;;23.50;96.40;;;;;;5032453;28;20112;-62
2023/08/23 11:27:13;;;;;;;3.25;1.30;;;23.50;96.00;;;;;;5032754;28;20053;-64
2023/08/23 11:29:43;;;;;;;5.50;2.00;;;23.40;94.90;;;;;;5033682;28;20119;-63
2023/08/23 11:32:11;;;;;;;4.22;1.58;;;23.50;93.90;;;;;;5031092;28;20060;-61
2023/08/23 11:34:38;;;;;;;4.35;1.30;;;23.50;94.40;;;;;;5031739;28;20488;-62
2023/08/23 11:37:09;;;;;;;6.57;1.75;;;23.50;95.50;;;;;;5031471;28;20057;-62
2023/08/23 11:39:36;;;;;;;5.25;1.52;;;23.60;95.60;;;;;;5031687;28;20053;-62
2023/08/23 11:42:03;;;;;;;4.60;1.63;;;23.70;95.80;;;;;;5028162;28;20045;-62
2023/08/23 11:44:30;;;;;;;5.68;1.73;;;23.80;95.70;;;;;;5031160;28;20057;-62
2023/08/23 11:46:57;;;;;;;8.70;1.40;;;23.70;95.90;;;;;;5030951;28;20041;-62
2023/08/23 11:49:24;;;;;;;2.90;1.13;;;23.70;94.80;;;;;;5030881;28;20183;-62
2023/08/23 11:51:52;;;;;;;4.82;1.98;;;23.70;95.30;;;;;;5030538;28;20083;-62
2023/08/23 11:54:20;;;;;;;4.80;1.50;;;23.90;94.60;;;;;;5030917;28;20049;-62
2023/08/23 11:56:46;;;;;;;6.78;1.70;;;24.10;94.70;;;;;;5031579;28;20054;-63
2023/08/23 11:59:13;;;;;;;8.85;2.50;;;24.20;94.50;;;;;;5013546;28;20042;-63
2023/08/23 12:01:43;;;;;;;13.80;2.28;;;24.20;94.10;;;;;;5031327;28;20056;-63
2023/08/23 12:04:11;;;;;;;9.77;2.13;;;24.20;93.80;;;;;;5013528;28;20045;-61
2023/08/23 12:06:38;;;;;;;5.88;1.75;;;24.30;93.30;;;;;;5030795;28;20061;-61
2023/08/23 12:09:09;;;;;;;9.25;1.85;;;24.40;93.70;;;;;;5030729;28;20065;-62
2023/08/23 12:11:36;;;;;;;5.03;1.63;;;24.40;93.10;;;;;;5030717;28;20045;-61
2023/08/23 12:14:05;;;;;;;3.03;1.50;;;24.30;93.10;;;;;;5030784;28;20488;-61
2023/08/23 12:16:34;;;;;;;4.13;1.48;;;24.10;93.10;;;;;;5029966;28;20103;-61
2023/08/23 12:19:01;;;;;;;3.95;1.52;;;24.10;92.60;;;;;;5012859;28;20041;-61
2023/08/23 12:21:40;;;;;;;5.18;1.58;;;24.00;93.20;;;;;;5029346;28;20575;-62
2023/08/23 12:24:06;;;;;;;2.95;1.50;;;24.20;92.40;;;;;;5030420;28;20037;-62
2023/08/23 12:26:33;;;;;;;8.07;2.00;;;24.40;92.90;;;;;;5030696;28;20057;-62
2023/08/23 12:29:00;;;;;;;4.50;1.75;;;24.60;92.70;;;;;;5030432;28;20048;-62
2023/08/23 12:31:27;;;;;;;9.07;1.80;;;24.70;92.60;;;;;;5012494;28;20057;-62
2023/08/23 12:33:54;;;;;;;2.33;1.48;;;24.80;92.80;;;;;;5029876;28;20100;-62
2023/08/23 12:36:21;;;;;;;6.38;1.70;;;24.70;92.40;;;;;;5030426;28;20111;-62
2023/08/23 12:38:49;;;;;;;4.50;1.98;;;24.60;92.30;;;;;;5023987;28;20041;-63
2023/08/23 12:41:16;;;;;;;10.65;2.00;;;24.60;92.00;;;;;;5030255;28;20061;-63
2023/08/23 12:43:42;;;;;;;6.30;1.90;;;24.70;92.20;;;;;;5030390;28;20057;-63
2023/08/23 12:46:09;;;;;;;7.45;1.70;;;24.80;92.10;;;;;;5030558;28;20046;-63